sensor_id;sensor_type;location;lat;lon;timestamp;temperature;humidity
21823;DHT22;11074;48.596;9.238;2022-08-21T00:02:29;15.80;99.90
21823;DHT22;11074;48.596;9.238;2022-08-21T00:04:55;15.70;99.90
21823;DHT22;11074;48.596;9.238;2022-08-21T00:07:21;15.70;99.90
21823;DHT22;11074;48.596;9.238;2022-08-21T00:09:47;15.70;99.90
21823;DHT22;11074;48.596;9.238;2022-08-21T00:12:13;15.70;99.90
21823;DHT22;11074;48.596;9.238;2022-08-21T00:14:40;15.70;99.90
21823;DHT22;11074;48.596;9.238;2022-08-21T00:17:06;15.60;99.90
21823;DHT22;11074;48.596;9.238;2022-08-21T00:19:32;15.60;99.90
21823;DHT22;11074;48.596;9.238;2022-08-21T00:21:58;15.50;99.90
21823;DHT22;11074;48.596;9.238;2022-08-21T00:24:25;15.60;99.90
21823;DHT22;11074;48.596;9.238;2022-08-21T00:26:52;15.60;99.90
21823;DHT22;11074;48.596;9.238;2022-08-21T00:29:18;15.50;99.90
21823;DHT22;11074;48.596;9.238;2022-08-21T00:31:45;15.50;99.90
21823;DHT22;11074;48.596;9.238;2022-08-21T00:34:12;15.50;99.90
21823;DHT22;11074;48.596;9.238;2022-08-21T00:36:39;15.40;99.90
21823;DHT22;11074;48.596;9.238;2022-08-21T00:39:07;15.40;99.90
21823;DHT22;11074;48.596;9.238;2022-08-21T00:41:35;15.40;99.90
21823;DHT22;11074;48.596;9.238;2022-08-21T00:44:02;15.40;99.90
21823;DHT22;11074;48.596;9.238;2022-08-21T00:46:29;15.40;99.90
21823;DHT22;11074;48.596;9.238;2022-08-21T00:48:55;15.40;99.90
21823;DHT22;11074;48.596;9.238;2022-08-21T00:51:31;15.40;99.90
21823;DHT22;11074;48.596;9.238;2022-08-21T00:54:02;15.40;99.90
21823;DHT22;11074;48.596;9.238;2022-08-21T00:56:28;15.40;99.90
21823;DHT22;11074;48.596;9.238;2022-08-21T00:58:55;15.40;99.90
21823;DHT22;11074;48.596;9.238;2022-08-21T01:01:23;15.30;99.90
21823;DHT22;11074;48.596;9.238;2022-08-21T01:03:49;15.30;99.90
21823;DHT22;11074;48.596;9.238;2022-08-21T01:06:15;15.30;99.90
21823;DHT22;11074;48.596;9.238;2022-08-21T01:08:41;15.30;99.90
21823;DHT22;11074;48.596;9.238;2022-08-21T01:11:07;15.30;99.90
21823;DHT22;11074;48.596;9.238;2022-08-21T01:13:36;15.20;99.90
21823;DHT22;11074;48.596;9.238;2022-08-21T01:16:09;15.20;99.90
21823;DHT22;11074;48.596;9.238;2022-08-21T01:18:35;15.20;99.90
21823;DHT22;11074;48.596;9.238;2022-08-21T01:21:13;15.10;99.90
21823;DHT22;11074;48.596;9.238;2022-08-21T01:23:47;15.10;99.90
21823;DHT22;11074;48.596;9.238;2022-08-21T01:26:17;15.10;99.90
21823;DHT22;11074;48.596;9.238;2022-08-21T01:29:26;15.10;99.90
21823;DHT22;11074;48.596;9.238;2022-08-21T01:32:18;15.00;99.90
21823;DHT22;11074;48.596;9.238;2022-08-21T01:34:47;14.90;99.90
21823;DHT22;11074;48.596;9.238;2022-08-21T01:37:16;14.90;99.90
21823;DHT22;11074;48.596;9.238;2022-08-21T01:39:43;14.80;99.90
21823;DHT22;11074;48.596;9.238;2022-08-21T01:42:10;14.80;99.90
21823;DHT22;11074;48.596;9.238;2022-08-21T01:44:36;14.70;99.90
21823;DHT22;11074;48.596;9.238;2022-08-21T01:47:06;14.70;99.90
21823;DHT22;11074;48.596;9.238;2022-08-21T01:49:34;14.70;99.90
21823;DHT22;11074;48.596;9.238;2022-08-21T01:52:00;14.80;99.90
21823;DHT22;11074;48.596;9.238;2022-08-21T01:54:26;14.80;99.90
21823;DHT22;11074;48.596;9.238;2022-08-21T01:56:53;14.70;99.90
21823;DHT22;11074;48.596;9.238;2022-08-21T01:59:22;14.70;99.90
21823;DHT22;11074;48.596;9.238;2022-08-21T02:01:48;14.70;99.90
21823;DHT22;11074;48.596;9.238;2022-08-21T02:04:14;14.60;99.90
21823;DHT22;11074;48.596;9.238;2022-08-21T02:06:40;14.60;99.90
21823;DHT22;11074;48.596;9.238;2022-08-21T02:09:09;14.60;99.90
21823;DHT22;11074;48.596;9.238;2022-08-21T02:11:36;14.60;99.90
21823;DHT22;11074;48.596;9.238;2022-08-21T02:14:09;14.60;99.90
21823;DHT22;11074;48.596;9.238;2022-08-21T02:16:37;14.50;99.90
21823;DHT22;11074;48.596;9.238;2022-08-21T02:19:04;14.50;99.90
21823;DHT22;11074;48.596;9.238;2022-08-21T02:21:31;14.40;99.90
21823;DHT22;11074;48.596;9.238;2022-08-21T02:23:57;14.30;99.90
21823;DHT22;11074;48.596;9.238;2022-08-21T02:26:22;14.30;99.90
21823;DHT22;11074;48.596;9.238;2022-08-21T02:28:48;14.40;99.90
21823;DHT22;11074;48.596;9.238;2022-08-21T02:31:14;14.30;99.90
21823;DHT22;11074;48.596;9.238;2022-08-21T02:33:40;14.30;99.90
21823;DHT22;11074;48.596;9.238;2022-08-21T02:36:07;14.30;99.90
21823;DHT22;11074;48.596;9.238;2022-08-21T02:38:36;14.20;99.90
21823;DHT22;11074;48.596;9.238;2022-08-21T02:41:09;14.30;99.90
21823;DHT22;11074;48.596;9.238;2022-08-21T02:43:37;14.20;99.90
21823;DHT22;11074;48.596;9.238;2022-08-21T02:46:04;14.20;99.90
21823;DHT22;11074;48.596;9.238;2022-08-21T02:48:33;14.20;99.90
21823;DHT22;11074;48.596;9.238;2022-08-21T02:51:03;14.20;99.90
21823;DHT22;11074;48.596;9.238;2022-08-21T02:53:31;14.20;99.90
21823;DHT22;11074;48.596;9.238;2022-08-21T02:55:59;14.20;99.90
21823;DHT22;11074;48.596;9.238;2022-08-21T02:58:32;14.20;99.90
21823;DHT22;11074;48.596;9.238;2022-08-21T03:01:00;14.10;99.90
21823;DHT22;11074;48.596;9.238;2022-08-21T03:03:27;14.10;99.90
21823;DHT22;11074;48.596;9.238;2022-08-21T03:05:54;14.10;99.90
21823;DHT22;11074;48.596;9.238;2022-08-21T03:08:21;14.00;99.90
21823;DHT22;11074;48.596;9.238;2022-08-21T03:10:50;13.80;99.90
21823;DHT22;11074;48.596;9.238;2022-08-21T03:13:19;13.90;99.90
21823;DHT22;11074;48.596;9.238;2022-08-21T03:15:46;13.90;99.90
21823;DHT22;11074;48.596;9.238;2022-08-21T03:18:13;13.80;99.90
21823;DHT22;11074;48.596;9.238;2022-08-21T03:20:40;13.80;99.90
21823;DHT22;11074;48.596;9.238;2022-08-21T03:23:07;13.80;99.90
21823;DHT22;11074;48.596;9.238;2022-08-21T03:25:34;13.80;99.90
21823;DHT22;11074;48.596;9.238;2022-08-21T03:28:02;13.70;99.90
21823;DHT22;11074;48.596;9.238;2022-08-21T03:30:29;13.70;99.90
21823;DHT22;11074;48.596;9.238;2022-08-21T03:32:57;13.60;99.90
21823;DHT22;11074;48.596;9.238;2022-08-21T03:35:24;13.70;99.90
21823;DHT22;11074;48.596;9.238;2022-08-21T03:37:51;13.70;99.90
21823;DHT22;11074;48.596;9.238;2022-08-21T03:40:18;13.70;99.90
21823;DHT22;11074;48.596;9.238;2022-08-21T03:42:44;13.70;99.90
21823;DHT22;11074;48.596;9.238;2022-08-21T03:45:13;13.70;99.90
21823;DHT22;11074;48.596;9.238;2022-08-21T03:47:56;13.70;99.90
21823;DHT22;11074;48.596;9.238;2022-08-21T03:50:26;13.80;99.90
21823;DHT22;11074;48.596;9.238;2022-08-21T03:52:56;13.80;99.90
21823;DHT22;11074;48.596;9.238;2022-08-21T03:55:22;13.80;99.90
21823;DHT22;11074;48.596;9.238;2022-08-21T03:57:48;13.70;99.90
21823;DHT22;11074;48.596;9.238;2022-08-21T04:00:15;13.60;99.90
21823;DHT22;11074;48.596;9.238;2022-08-21T04:02:42;13.40;99.90
21823;DHT22;11074;48.596;9.238;2022-08-21T04:05:10;13.40;99.90
21823;DHT22;11074;48.596;9.238;2022-08-21T04:07:37;13.40;99.90
21823;DHT22;11074;48.596;9.238;2022-08-21T04:10:05;13.40;99.90
21823;DHT22;11074;48.596;9.238;2022-08-21T04:12:32;13.30;99.90
21823;DHT22;11074;48.596;9.238;2022-08-21T04:14:58;13.20;99.90
21823;DHT22;11074;48.596;9.238;2022-08-21T04:17:24;13.30;99.90
21823;DHT22;11074;48.596;9.238;2022-08-21T04:19:50;13.30;99.90
21823;DHT22;11074;48.596;9.238;2022-08-21T04:22:16;13.30;99.90
21823;DHT22;11074;48.596;9.238;2022-08-21T04:24:42;13.30;99.90
21823;DHT22;11074;48.596;9.238;2022-08-21T04:27:07;13.30;99.90
21823;DHT22;11074;48.596;9.238;2022-08-21T04:29:33;13.40;99.90
21823;DHT22;11074;48.596;9.238;2022-08-21T04:31:59;13.30;99.90
21823;DHT22;11074;48.596;9.238;2022-08-21T04:34:25;13.30;99.90
21823;DHT22;11074;48.596;9.238;2022-08-21T04:36:50;13.20;99.90
21823;DHT22;11074;48.596;9.238;2022-08-21T04:39:16;13.20;99.90
21823;DHT22;11074;48.596;9.238;2022-08-21T04:41:42;13.20;99.90
21823;DHT22;11074;48.596;9.238;2022-08-21T04:44:07;13.20;99.90
21823;DHT22;11074;48.596;9.238;2022-08-21T04:46:34;13.20;99.90
21823;DHT22;11074;48.596;9.238;2022-08-21T04:49:00;13.20;99.90
21823;DHT22;11074;48.596;9.238;2022-08-21T04:51:30;13.20;99.90
21823;DHT22;11074;48.596;9.238;2022-08-21T04:54:12;13.10;99.90
21823;DHT22;11074;48.596;9.238;2022-08-21T04:56:45;13.10;99.90
21823;DHT22;11074;48.596;9.238;2022-08-21T04:59:20;13.10;99.90
21823;DHT22;11074;48.596;9.238;2022-08-21T05:01:50;13.20;99.90
21823;DHT22;11074;48.596;9.238;2022-08-21T05:04:20;13.40;99.90
21823;DHT22;11074;48.596;9.238;2022-08-21T05:06:50;13.50;99.90
21823;DHT22;11074;48.596;9.238;2022-08-21T05:09:21;13.50;99.90
21823;DHT22;11074;48.596;9.238;2022-08-21T05:11:49;13.60;99.90
21823;DHT22;11074;48.596;9.238;2022-08-21T05:14:17;13.60;99.90
21823;DHT22;11074;48.596;9.238;2022-08-21T05:16:43;13.60;99.90
21823;DHT22;11074;48.596;9.238;2022-08-21T05:19:09;13.60;99.90
21823;DHT22;11074;48.596;9.238;2022-08-21T05:21:37;13.60;99.90
21823;DHT22;11074;48.596;9.238;2022-08-21T05:24:05;13.60;99.90
21823;DHT22;11074;48.596;9.238;2022-08-21T05:26:31;13.60;99.90
21823;DHT22;11074;48.596;9.238;2022-08-21T05:28:56;13.60;99.90
21823;DHT22;11074;48.596;9.238;2022-08-21T05:31:22;13.60;99.90
21823;DHT22;11074;48.596;9.238;2022-08-21T05:33:48;13.70;99.90
21823;DHT22;11074;48.596;9.238;2022-08-21T05:36:14;13.70;99.90
21823;DHT22;11074;48.596;9.238;2022-08-21T05:38:40;13.70;99.90
21823;DHT22;11074;48.596;9.238;2022-08-21T05:41:06;13.70;99.90
21823;DHT22;11074;48.596;9.238;2022-08-21T05:43:32;13.80;99.90
21823;DHT22;11074;48.596;9.238;2022-08-21T05:46:02;13.80;99.90
21823;DHT22;11074;48.596;9.238;2022-08-21T05:48:30;13.80;99.90
21823;DHT22;11074;48.596;9.238;2022-08-21T05:50:56;13.90;99.90
21823;DHT22;11074;48.596;9.238;2022-08-21T05:53:23;14.00;99.90
21823;DHT22;11074;48.596;9.238;2022-08-21T05:55:51;14.10;99.90
21823;DHT22;11074;48.596;9.238;2022-08-21T05:58:19;14.20;99.90
21823;DHT22;11074;48.596;9.238;2022-08-21T06:00:48;14.30;99.90
21823;DHT22;11074;48.596;9.238;2022-08-21T06:03:21;14.40;99.90
21823;DHT22;11074;48.596;9.238;2022-08-21T06:05:49;14.50;99.90
21823;DHT22;11074;48.596;9.238;2022-08-21T06:08:16;14.50;99.90
21823;DHT22;11074;48.596;9.238;2022-08-21T06:10:44;14.60;99.90
21823;DHT22;11074;48.596;9.238;2022-08-21T06:13:10;14.60;99.90
21823;DHT22;11074;48.596;9.238;2022-08-21T06:15:37;14.60;99.90
21823;DHT22;11074;48.596;9.238;2022-08-21T06:18:04;14.80;99.90
21823;DHT22;11074;48.596;9.238;2022-08-21T06:20:30;15.00;99.90
21823;DHT22;11074;48.596;9.238;2022-08-21T06:22:56;15.10;99.90
21823;DHT22;11074;48.596;9.238;2022-08-21T06:25:22;15.20;99.90
21823;DHT22;11074;48.596;9.238;2022-08-21T06:27:49;15.20;99.90
21823;DHT22;11074;48.596;9.238;2022-08-21T06:30:15;15.20;99.90
21823;DHT22;11074;48.596;9.238;2022-08-21T06:32:41;15.20;99.90
21823;DHT22;11074;48.596;9.238;2022-08-21T06:35:07;15.30;99.90
21823;DHT22;11074;48.596;9.238;2022-08-21T06:37:33;15.30;99.90
21823;DHT22;11074;48.596;9.238;2022-08-21T06:39:59;15.50;99.90
21823;DHT22;11074;48.596;9.238;2022-08-21T06:42:25;15.60;99.90
21823;DHT22;11074;48.596;9.238;2022-08-21T06:44:53;15.60;99.90
21823;DHT22;11074;48.596;9.238;2022-08-21T06:47:19;15.70;99.90
21823;DHT22;11074;48.596;9.238;2022-08-21T06:49:45;15.80;99.90
21823;DHT22;11074;48.596;9.238;2022-08-21T06:52:12;15.90;99.90
21823;DHT22;11074;48.596;9.238;2022-08-21T06:54:39;15.90;99.90
21823;DHT22;11074;48.596;9.238;2022-08-21T06:57:05;16.00;99.90
21823;DHT22;11074;48.596;9.238;2022-08-21T06:59:31;16.10;99.90
21823;DHT22;11074;48.596;9.238;2022-08-21T07:01:59;16.20;99.90
21823;DHT22;11074;48.596;9.238;2022-08-21T07:04:25;16.30;99.90
21823;DHT22;11074;48.596;9.238;2022-08-21T07:06:51;16.30;99.90
21823;DHT22;11074;48.596;9.238;2022-08-21T07:09:17;16.40;99.90
21823;DHT22;11074;48.596;9.238;2022-08-21T07:11:45;16.40;99.90
21823;DHT22;11074;48.596;9.238;2022-08-21T07:14:15;16.50;99.90
21823;DHT22;11074;48.596;9.238;2022-08-21T07:16:41;16.60;99.90
21823;DHT22;11074;48.596;9.238;2022-08-21T07:19:06;16.70;99.90
21823;DHT22;11074;48.596;9.238;2022-08-21T07:21:32;16.80;99.90
21823;DHT22;11074;48.596;9.238;2022-08-21T07:23:58;16.90;99.90
21823;DHT22;11074;48.596;9.238;2022-08-21T07:26:24;16.90;99.90
21823;DHT22;11074;48.596;9.238;2022-08-21T07:28:51;16.90;99.90
21823;DHT22;11074;48.596;9.238;2022-08-21T07:31:21;16.90;99.90
21823;DHT22;11074;48.596;9.238;2022-08-21T07:33:48;17.00;99.90
21823;DHT22;11074;48.596;9.238;2022-08-21T07:36:14;17.00;99.90
21823;DHT22;11074;48.596;9.238;2022-08-21T07:38:40;17.10;99.90
21823;DHT22;11074;48.596;9.238;2022-08-21T07:41:13;17.10;99.90
21823;DHT22;11074;48.596;9.238;2022-08-21T07:43:40;17.20;99.90
21823;DHT22;11074;48.596;9.238;2022-08-21T07:46:06;17.20;99.90
21823;DHT22;11074;48.596;9.238;2022-08-21T07:48:32;17.30;99.90
21823;DHT22;11074;48.596;9.238;2022-08-21T07:51:02;17.40;99.90
21823;DHT22;11074;48.596;9.238;2022-08-21T07:53:32;17.50;99.90
21823;DHT22;11074;48.596;9.238;2022-08-21T07:55:58;17.50;99.90
21823;DHT22;11074;48.596;9.238;2022-08-21T07:58:24;17.60;99.90
21823;DHT22;11074;48.596;9.238;2022-08-21T08:00:50;17.70;99.90
21823;DHT22;11074;48.596;9.238;2022-08-21T08:03:16;17.70;99.90
21823;DHT22;11074;48.596;9.238;2022-08-21T08:05:41;17.70;99.90
21823;DHT22;11074;48.596;9.238;2022-08-21T08:08:07;17.70;99.90
21823;DHT22;11074;48.596;9.238;2022-08-21T08:10:33;17.70;99.90
21823;DHT22;11074;48.596;9.238;2022-08-21T08:13:00;17.80;99.90
21823;DHT22;11074;48.596;9.238;2022-08-21T08:15:27;17.90;99.90
21823;DHT22;11074;48.596;9.238;2022-08-21T08:17:53;17.90;99.90
21823;DHT22;11074;48.596;9.238;2022-08-21T08:20:20;18.00;99.90
21823;DHT22;11074;48.596;9.238;2022-08-21T08:22:48;18.10;99.90
21823;DHT22;11074;48.596;9.238;2022-08-21T08:25:14;18.20;99.90
21823;DHT22;11074;48.596;9.238;2022-08-21T08:27:41;18.40;99.90
21823;DHT22;11074;48.596;9.238;2022-08-21T08:30:09;18.30;99.90
21823;DHT22;11074;48.596;9.238;2022-08-21T08:32:37;18.30;99.90
21823;DHT22;11074;48.596;9.238;2022-08-21T08:35:05;18.40;99.90
21823;DHT22;11074;48.596;9.238;2022-08-21T08:37:32;18.60;99.90
21823;DHT22;11074;48.596;9.238;2022-08-21T08:39:59;18.60;99.90
21823;DHT22;11074;48.596;9.238;2022-08-21T08:42:34;18.60;99.90
21823;DHT22;11074;48.596;9.238;2022-08-21T08:47:36;18.60;99.90
21823;DHT22;11074;48.596;9.238;2022-08-21T08:50:18;18.70;99.90
21823;DHT22;11074;48.596;9.238;2022-08-21T08:52:53;18.80;99.90
21823;DHT22;11074;48.596;9.238;2022-08-21T08:55:41;18.80;99.90
21823;DHT22;11074;48.596;9.238;2022-08-21T08:58:14;18.90;99.90
21823;DHT22;11074;48.596;9.238;2022-08-21T09:00:49;19.00;99.90
21823;DHT22;11074;48.596;9.238;2022-08-21T09:03:16;19.00;99.90
21823;DHT22;11074;48.596;9.238;2022-08-21T09:05:46;19.10;99.90
21823;DHT22;11074;48.596;9.238;2022-08-21T09:08:49;19.20;99.90
21823;DHT22;11074;48.596;9.238;2022-08-21T09:29:24;19.60;99.90
21823;DHT22;11074;48.596;9.238;2022-08-21T09:31:54;19.70;99.90
21823;DHT22;11074;48.596;9.238;2022-08-21T09:34:29;19.80;99.90
21823;DHT22;11074;48.596;9.238;2022-08-21T09:36:57;19.80;99.90
21823;DHT22;11074;48.596;9.238;2022-08-21T09:39:38;19.90;99.90
21823;DHT22;11074;48.596;9.238;2022-08-21T09:42:07;20.00;99.90
21823;DHT22;11074;48.596;9.238;2022-08-21T09:44:37;20.00;99.90
21823;DHT22;11074;48.596;9.238;2022-08-21T09:47:10;20.00;99.90
21823;DHT22;11074;48.596;9.238;2022-08-21T09:49:42;20.00;99.90
21823;DHT22;11074;48.596;9.238;2022-08-21T09:52:19;20.00;99.90
21823;DHT22;11074;48.596;9.238;2022-08-21T09:54:51;20.00;99.90
21823;DHT22;11074;48.596;9.238;2022-08-21T09:57:25;20.00;99.90
21823;DHT22;11074;48.596;9.238;2022-08-21T10:00:30;20.10;99.90
21823;DHT22;11074;48.596;9.238;2022-08-21T10:03:14;20.10;99.90
21823;DHT22;11074;48.596;9.238;2022-08-21T10:05:49;20.20;99.90
21823;DHT22;11074;48.596;9.238;2022-08-21T10:08:40;20.30;99.90
21823;DHT22;11074;48.596;9.238;2022-08-21T10:11:10;20.30;99.90
21823;DHT22;11074;48.596;9.238;2022-08-21T10:25:12;20.80;99.90
21823;DHT22;11074;48.596;9.238;2022-08-21T10:33:44;21.00;99.90
21823;DHT22;11074;48.596;9.238;2022-08-21T10:36:23;21.10;99.90
21823;DHT22;11074;48.596;9.238;2022-08-21T10:41:58;21.20;99.90
21823;DHT22;11074;48.596;9.238;2022-08-21T10:47:53;21.30;99.90
21823;DHT22;11074;48.596;9.238;2022-08-21T10:53:16;21.40;99.90
21823;DHT22;11074;48.596;9.238;2022-08-21T10:56:21;21.40;99.90
21823;DHT22;11074;48.596;9.238;2022-08-21T11:05:01;21.90;99.90
21823;DHT22;11074;48.596;9.238;2022-08-21T11:07:39;21.90;99.90
21823;DHT22;11074;48.596;9.238;2022-08-21T11:13:22;21.90;99.90
21823;DHT22;11074;48.596;9.238;2022-08-21T11:16:00;21.90;99.90
21823;DHT22;11074;48.596;9.238;2022-08-21T11:21:41;22.10;99.90
21823;DHT22;11074;48.596;9.238;2022-08-21T11:24:37;22.10;99.90
21823;DHT22;11074;48.596;9.238;2022-08-21T11:29:59;22.50;99.90
21823;DHT22;11074;48.596;9.238;2022-08-21T11:33:12;22.60;99.90
21823;DHT22;11074;48.596;9.238;2022-08-21T11:36:02;22.70;99.90
21823;DHT22;11074;48.596;9.238;2022-08-21T11:38:49;22.90;99.90
21823;DHT22;11074;48.596;9.238;2022-08-21T11:41:34;23.00;99.90
21823;DHT22;11074;48.596;9.238;2022-08-21T11:44:41;23.00;99.90
21823;DHT22;11074;48.596;9.238;2022-08-21T11:47:12;23.10;99.90
21823;DHT22;11074;48.596;9.238;2022-08-21T11:49:49;23.20;99.90
21823;DHT22;11074;48.596;9.238;2022-08-21T11:52:36;23.30;99.90
21823;DHT22;11074;48.596;9.238;2022-08-21T11:55:15;23.40;99.90
21823;DHT22;11074;48.596;9.238;2022-08-21T11:57:58;23.40;99.90
21823;DHT22;11074;48.596;9.238;2022-08-21T12:00:35;23.50;99.90
21823;DHT22;11074;48.596;9.238;2022-08-21T12:04:01;23.60;99.90
21823;DHT22;11074;48.596;9.238;2022-08-21T12:06:39;23.50;99.90
21823;DHT22;11074;48.596;9.238;2022-08-21T12:09:34;23.70;99.90
21823;DHT22;11074;48.596;9.238;2022-08-21T12:12:25;23.70;99.90
21823;DHT22;11074;48.596;9.238;2022-08-21T12:17:57;24.00;99.90
21823;DHT22;11074;48.596;9.238;2022-08-21T12:20:27;24.10;99.90
21823;DHT22;11074;48.596;9.238;2022-08-21T12:23:23;24.20;99.90
21823;DHT22;11074;48.596;9.238;2022-08-21T12:26:11;24.30;99.90
21823;DHT22;11074;48.596;9.238;2022-08-21T12:28:45;24.30;99.90
21823;DHT22;11074;48.596;9.238;2022-08-21T12:31:23;24.30;99.90
21823;DHT22;11074;48.596;9.238;2022-08-21T12:33:58;24.40;99.90
21823;DHT22;11074;48.596;9.238;2022-08-21T12:36:45;24.40;99.90
21823;DHT22;11074;48.596;9.238;2022-08-21T12:39:19;24.40;99.90
21823;DHT22;11074;48.596;9.238;2022-08-21T12:42:06;24.60;99.90
21823;DHT22;11074;48.596;9.238;2022-08-21T12:44:44;24.70;99.90
21823;DHT22;11074;48.596;9.238;2022-08-21T12:50:13;24.90;99.90
21823;DHT22;11074;48.596;9.238;2022-08-21T12:53:06;24.80;99.90
21823;DHT22;11074;48.596;9.238;2022-08-21T12:55:41;24.90;99.90
21823;DHT22;11074;48.596;9.238;2022-08-21T12:58:18;24.90;99.90
21823;DHT22;11074;48.596;9.238;2022-08-21T13:01:03;25.00;99.90
21823;DHT22;11074;48.596;9.238;2022-08-21T13:03:34;24.90;99.90
21823;DHT22;11074;48.596;9.238;2022-08-21T13:06:06;25.00;99.90
21823;DHT22;11074;48.596;9.238;2022-08-21T13:08:35;24.80;99.90
21823;DHT22;11074;48.596;9.238;2022-08-21T13:11:05;24.80;99.90
21823;DHT22;11074;48.596;9.238;2022-08-21T13:13:32;25.00;99.90
21823;DHT22;11074;48.596;9.238;2022-08-21T13:16:03;25.20;99.90
21823;DHT22;11074;48.596;9.238;2022-08-21T13:18:33;25.20;99.90
21823;DHT22;11074;48.596;9.238;2022-08-21T13:21:13;25.20;99.90
21823;DHT22;11074;48.596;9.238;2022-08-21T13:23:40;25.20;99.90
21823;DHT22;11074;48.596;9.238;2022-08-21T13:26:17;25.30;99.90
21823;DHT22;11074;48.596;9.238;2022-08-21T13:28:45;25.50;99.90
21823;DHT22;11074;48.596;9.238;2022-08-21T13:31:27;25.50;99.90
21823;DHT22;11074;48.596;9.238;2022-08-21T13:33:56;25.40;99.90
21823;DHT22;11074;48.596;9.238;2022-08-21T13:36:29;25.30;99.90
21823;DHT22;11074;48.596;9.238;2022-08-21T13:38:59;25.30;99.90
21823;DHT22;11074;48.596;9.238;2022-08-21T13:41:28;25.50;99.90
21823;DHT22;11074;48.596;9.238;2022-08-21T13:43:58;25.60;99.90
21823;DHT22;11074;48.596;9.238;2022-08-21T13:46:28;25.60;99.90
21823;DHT22;11074;48.596;9.238;2022-08-21T13:48:59;25.70;99.90
21823;DHT22;11074;48.596;9.238;2022-08-21T13:51:27;25.70;99.90
21823;DHT22;11074;48.596;9.238;2022-08-21T13:53:53;25.70;99.90
21823;DHT22;11074;48.596;9.238;2022-08-21T13:56:32;26.00;99.90
21823;DHT22;11074;48.596;9.238;2022-08-21T13:59:06;26.10;99.90
21823;DHT22;11074;48.596;9.238;2022-08-21T14:01:33;26.30;99.90
21823;DHT22;11074;48.596;9.238;2022-08-21T14:04:20;26.20;99.90
21823;DHT22;11074;48.596;9.238;2022-08-21T14:06:49;26.20;99.90
21823;DHT22;11074;48.596;9.238;2022-08-21T14:09:33;26.20;99.90
21823;DHT22;11074;48.596;9.238;2022-08-21T14:12:37;26.30;99.90
21823;DHT22;11074;48.596;9.238;2022-08-21T14:15:09;26.30;99.90
21823;DHT22;11074;48.596;9.238;2022-08-21T14:17:39;26.30;99.90
21823;DHT22;11074;48.596;9.238;2022-08-21T14:20:30;26.30;99.90
21823;DHT22;11074;48.596;9.238;2022-08-21T14:22:58;26.10;99.90
21823;DHT22;11074;48.596;9.238;2022-08-21T14:28:03;26.10;99.90
21823;DHT22;11074;48.596;9.238;2022-08-21T14:30:41;26.10;99.90
21823;DHT22;11074;48.596;9.238;2022-08-21T14:33:10;26.00;99.90
21823;DHT22;11074;48.596;9.238;2022-08-21T14:35:39;26.00;99.90
21823;DHT22;11074;48.596;9.238;2022-08-21T14:38:15;26.10;99.90
21823;DHT22;11074;48.596;9.238;2022-08-21T14:40:47;26.20;99.90
21823;DHT22;11074;48.596;9.238;2022-08-21T14:43:15;26.30;99.90
21823;DHT22;11074;48.596;9.238;2022-08-21T14:45:42;26.30;99.90
21823;DHT22;11074;48.596;9.238;2022-08-21T14:48:09;26.30;99.90
21823;DHT22;11074;48.596;9.238;2022-08-21T14:50:35;26.30;99.90
21823;DHT22;11074;48.596;9.238;2022-08-21T14:53:01;26.50;99.90
21823;DHT22;11074;48.596;9.238;2022-08-21T14:55:29;26.70;99.90
21823;DHT22;11074;48.596;9.238;2022-08-21T14:58:16;26.70;99.90
21823;DHT22;11074;48.596;9.238;2022-08-21T15:00:42;26.60;99.90
21823;DHT22;11074;48.596;9.238;2022-08-21T15:03:07;26.70;99.90
21823;DHT22;11074;48.596;9.238;2022-08-21T15:05:33;26.70;99.90
21823;DHT22;11074;48.596;9.238;2022-08-21T15:07:59;26.70;99.90
21823;DHT22;11074;48.596;9.238;2022-08-21T15:10:25;26.80;99.90
21823;DHT22;11074;48.596;9.238;2022-08-21T15:12:51;26.90;99.90
21823;DHT22;11074;48.596;9.238;2022-08-21T15:15:16;27.10;99.90
21823;DHT22;11074;48.596;9.238;2022-08-21T15:17:45;27.30;99.90
21823;DHT22;11074;48.596;9.238;2022-08-21T15:20:11;27.40;99.90
21823;DHT22;11074;48.596;9.238;2022-08-21T15:22:37;27.40;99.90
21823;DHT22;11074;48.596;9.238;2022-08-21T15:25:03;27.50;99.90
21823;DHT22;11074;48.596;9.238;2022-08-21T15:27:29;27.60;99.90
21823;DHT22;11074;48.596;9.238;2022-08-21T15:29:55;27.50;99.90
21823;DHT22;11074;48.596;9.238;2022-08-21T15:32:24;27.30;99.90
21823;DHT22;11074;48.596;9.238;2022-08-21T15:34:53;27.30;99.90
21823;DHT22;11074;48.596;9.238;2022-08-21T15:37:21;27.30;99.90
21823;DHT22;11074;48.596;9.238;2022-08-21T15:39:49;27.20;99.90
21823;DHT22;11074;48.596;9.238;2022-08-21T15:42:15;27.20;99.90
21823;DHT22;11074;48.596;9.238;2022-08-21T15:44:42;27.10;99.90
21823;DHT22;11074;48.596;9.238;2022-08-21T15:47:15;27.10;99.90
21823;DHT22;11074;48.596;9.238;2022-08-21T15:49:43;26.90;99.90
21823;DHT22;11074;48.596;9.238;2022-08-21T15:52:15;26.90;99.90
21823;DHT22;11074;48.596;9.238;2022-08-21T15:54:42;27.00;99.90
21823;DHT22;11074;48.596;9.238;2022-08-21T15:57:14;26.90;99.90
21823;DHT22;11074;48.596;9.238;2022-08-21T15:59:50;26.90;99.90
21823;DHT22;11074;48.596;9.238;2022-08-21T16:02:24;26.90;99.90
21823;DHT22;11074;48.596;9.238;2022-08-21T16:04:54;26.90;99.90
21823;DHT22;11074;48.596;9.238;2022-08-21T16:07:19;27.00;99.90
21823;DHT22;11074;48.596;9.238;2022-08-21T16:09:45;27.20;99.90
21823;DHT22;11074;48.596;9.238;2022-08-21T16:12:26;27.20;99.90
21823;DHT22;11074;48.596;9.238;2022-08-21T16:14:57;27.20;99.90
21823;DHT22;11074;48.596;9.238;2022-08-21T16:17:28;27.20;99.90
21823;DHT22;11074;48.596;9.238;2022-08-21T16:19:58;27.30;99.90
21823;DHT22;11074;48.596;9.238;2022-08-21T16:22:26;27.40;99.90
21823;DHT22;11074;48.596;9.238;2022-08-21T16:24:52;27.30;99.90
21823;DHT22;11074;48.596;9.238;2022-08-21T16:27:17;27.30;99.90
21823;DHT22;11074;48.596;9.238;2022-08-21T16:29:44;27.20;99.90
21823;DHT22;11074;48.596;9.238;2022-08-21T16:32:11;27.20;99.90
21823;DHT22;11074;48.596;9.238;2022-08-21T16:34:42;27.20;99.90
21823;DHT22;11074;48.596;9.238;2022-08-21T16:37:11;27.30;99.90
21823;DHT22;11074;48.596;9.238;2022-08-21T16:39:37;27.10;99.90
21823;DHT22;11074;48.596;9.238;2022-08-21T16:42:04;27.10;99.90
21823;DHT22;11074;48.596;9.238;2022-08-21T16:44:31;27.00;99.90
21823;DHT22;11074;48.596;9.238;2022-08-21T16:47:00;27.00;99.90
21823;DHT22;11074;48.596;9.238;2022-08-21T16:49:26;27.00;99.90
21823;DHT22;11074;48.596;9.238;2022-08-21T16:51:52;26.90;99.90
21823;DHT22;11074;48.596;9.238;2022-08-21T16:54:17;26.80;99.90
21823;DHT22;11074;48.596;9.238;2022-08-21T16:56:43;26.70;99.90
21823;DHT22;11074;48.596;9.238;2022-08-21T16:59:11;26.70;99.90
21823;DHT22;11074;48.596;9.238;2022-08-21T17:01:38;26.50;99.90
21823;DHT22;11074;48.596;9.238;2022-08-21T17:04:04;26.20;99.90